createdAt,value
2019-05-21T00:04:10.295Z,100185.33
2019-05-21T00:12:31.796Z,100179.06
2019-05-21T00:20:52.898Z,100185.65
2019-05-21T00:29:14.036Z,100173.56
2019-05-21T00:37:35.191Z,100160.38
2019-05-21T00:45:56.634Z,100161.92
2019-05-21T00:54:17.912Z,100157.79
2019-05-21T01:02:39.132Z,100146.31
2019-05-21T01:11:00.257Z,100137.17
2019-05-21T01:19:21.386Z,100137.88
2019-05-21T01:27:42.549Z,100137.88
2019-05-21T01:36:03.653Z,100150.30
2019-05-21T01:44:24.769Z,100145.03
2019-05-21T01:52:45.906Z,100148.75
2019-05-21T02:01:07.400Z,100147.78
2019-05-21T02:09:28.537Z,100154.70
2019-05-21T02:17:49.792Z,100153.97
2019-05-21T02:26:11.241Z,100161.80
2019-05-21T02:34:32.352Z,100170.30
2019-05-21T02:42:53.489Z,100183.56
2019-05-21T02:51:15.703Z,100186.19
2019-05-21T02:59:36.843Z,100183.18
2019-05-21T03:07:57.979Z,100191.88
2019-05-21T03:16:19.111Z,100180.67
2019-05-21T03:24:40.370Z,100194.65
2019-05-21T03:33:01.549Z,100195.66
2019-05-21T03:41:22.717Z,100201.67
2019-05-21T03:49:43.869Z,100209.78
2019-05-21T03:58:05.072Z,100206.05
2019-05-21T04:06:28.869Z,100212.80
2019-05-21T04:14:49.008Z,100210.28
2019-05-21T04:23:10.107Z,100216.59
2019-05-21T04:31:31.232Z,100231.72
2019-05-21T04:39:52.363Z,100233.05
2019-05-21T04:48:13.848Z,100220.94
2019-05-21T04:56:35.052Z,100224.19
2019-05-21T05:04:56.475Z,100238.13
2019-05-21T05:13:17.601Z,100234.41
2019-05-21T05:21:38.727Z,100234.60
2019-05-21T05:30:00.886Z,100232.45
2019-05-21T05:38:23.056Z,100248.78
2019-05-21T05:46:44.285Z,100261.43
2019-05-21T05:55:05.410Z,100255.09
2019-05-21T06:03:26.933Z,100268.69
2019-05-21T06:11:48.374Z,100276.44
2019-05-21T06:20:09.552Z,100276.42
2019-05-21T06:28:30.813Z,100277.87
2019-05-21T06:36:52.064Z,100294.41
2019-05-21T06:45:13.506Z,100306.53
2019-05-21T06:53:34.661Z,100312.73
2019-05-21T07:01:55.864Z,100320.45
2019-05-21T07:10:16.970Z,100340.28
2019-05-21T07:18:41.400Z,100354.75
2019-05-21T07:27:02.393Z,100364.40
2019-05-21T07:35:23.661Z,100368.58
2019-05-21T07:43:44.803Z,100370.14
2019-05-21T07:52:06.055Z,100381.58
2019-05-21T08:00:27.206Z,100398.90
2019-05-21T08:08:48.343Z,100387.53
2019-05-21T08:17:09.732Z,100399.05
2019-05-21T08:25:30.987Z,100415.92
2019-05-21T08:33:52.109Z,100421.17
2019-05-21T08:42:13.341Z,100434.65
2019-05-21T08:50:35.488Z,100447.13
2019-05-21T08:58:56.970Z,100456.97
2019-05-21T09:07:18.558Z,100467.61
2019-05-21T09:15:39.993Z,100469.88
2019-05-21T09:24:01.474Z,100474.24
2019-05-21T09:32:22.915Z,100476.46
2019-05-21T09:40:44.369Z,100466.68
2019-05-21T09:49:05.818Z,100478.85
2019-05-21T09:57:27.267Z,100489.83
2019-05-21T10:05:49.393Z,100496.51
2019-05-21T10:14:16.610Z,100508.02
2019-05-21T10:22:38.055Z,100515.25
2019-05-21T10:31:00.110Z,100527.17
2019-05-21T10:39:21.229Z,100523.69
2019-05-21T10:47:42.374Z,100527.31
2019-05-21T10:56:03.981Z,100533.33
2019-05-21T11:04:25.452Z,100548.27
2019-05-21T11:12:46.589Z,100574.62
2019-05-21T11:21:08.038Z,100585.10
2019-05-21T11:29:29.310Z,100595.86
2019-05-21T11:37:50.513Z,100602.05
2019-05-21T11:46:12.016Z,100606.46
2019-05-21T11:54:33.161Z,100613.39
2019-05-21T12:02:54.595Z,100619.70
2019-05-21T12:11:15.846Z,100611.39
2019-05-21T12:19:37.449Z,100622.34
2019-05-21T12:27:58.673Z,100632.80
2019-05-21T12:36:19.848Z,100641.09
2019-05-21T12:44:42.076Z,100654.04
2019-05-21T12:53:03.283Z,100667.18
2019-05-21T13:01:24.571Z,100668.98
2019-05-21T13:09:45.778Z,100678.36
2019-05-21T13:18:07.320Z,100690.03
2019-05-21T13:26:28.823Z,100700.59
2019-05-21T13:34:50.070Z,100704.61
2019-05-21T13:43:11.506Z,100723.31
2019-05-21T13:51:33.022Z,100730.16
2019-05-21T13:59:54.477Z,100726.34
2019-05-21T14:08:16.042Z,100735.22
2019-05-21T14:16:37.637Z,100738.55
2019-05-21T14:24:59.039Z,100739.53
2019-05-21T14:33:20.200Z,100747.81
2019-05-21T14:41:41.623Z,100758.20
2019-05-21T14:50:03.076Z,100754.11
2019-05-21T14:58:24.215Z,100758.95
2019-05-21T15:06:45.708Z,100765.58
2019-05-21T15:15:07.259Z,100768.23
2019-05-21T15:23:28.513Z,100775.03
2019-05-21T15:31:50.986Z,100776.47
2019-05-21T15:40:12.237Z,100795.47
2019-05-21T15:48:33.699Z,100792.65
2019-05-21T15:56:54.908Z,100794.62
2019-05-21T16:05:16.397Z,100797.02
2019-05-21T16:13:37.551Z,100809.00
2019-05-21T16:21:58.733Z,100811.83
2019-05-21T16:30:20.224Z,100812.50
2019-05-21T16:38:41.367Z,100820.01
2019-05-21T16:47:02.501Z,100819.98
2019-05-21T16:55:23.974Z,100816.62
2019-05-21T17:03:59.023Z,100822.95
2019-05-21T17:12:08.191Z,100817.17
2019-05-21T17:20:33.901Z,100826.80
2019-05-21T17:28:56.353Z,100826.61
2019-05-21T17:37:17.703Z,100826.78
2019-05-21T17:45:38.918Z,100832.14
2019-05-21T17:54:00.356Z,100842.28
2019-05-21T18:02:21.729Z,100850.46
2019-05-21T18:10:43.022Z,100852.63
2019-05-21T18:19:08.297Z,100862.52
2019-05-21T18:27:27.329Z,100861.84
2019-05-21T18:35:48.820Z,100875.09
2019-05-21T18:44:10.266Z,100879.27
2019-05-21T18:52:31.389Z,100890.80
2019-05-21T19:00:52.514Z,100891.30
2019-05-21T19:09:13.629Z,100900.56
2019-05-21T19:17:35.977Z,100910.12
2019-05-21T19:25:57.314Z,100914.44
2019-05-21T19:34:18.806Z,100932.70
2019-05-21T19:42:53.880Z,100943.22
2019-05-21T19:51:03.134Z,100945.92
2019-05-21T19:59:24.615Z,100964.07
2019-05-21T20:07:46.036Z,100977.71
2019-05-21T20:16:07.565Z,100982.25
2019-05-21T20:24:28.666Z,100984.12
2019-05-21T20:32:50.802Z,100992.94
2019-05-21T20:41:12.453Z,100994.52
2019-05-21T20:49:33.749Z,100994.42
2019-05-21T20:57:55.211Z,100996.66
2019-05-21T21:06:16.367Z,101001.38
2019-05-21T21:14:37.476Z,100999.70
2019-05-21T21:22:58.745Z,100997.59
2019-05-21T21:31:20.205Z,100993.91
2019-05-21T21:39:41.438Z,100996.06
2019-05-21T21:48:02.922Z,100998.12
2019-05-21T21:56:24.382Z,101001.56
2019-05-21T22:04:45.535Z,101005.72
2019-05-21T22:13:07.547Z,101016.55
2019-05-21T22:21:28.824Z,101015.38
2019-05-21T22:29:50.297Z,101013.57
2019-05-21T22:38:11.843Z,101014.93
2019-05-21T22:46:33.110Z,101018.97
2019-05-21T22:54:54.244Z,101019.34
2019-05-21T23:03:15.561Z,101023.94
2019-05-21T23:11:36.706Z,101019.42
2019-05-21T23:19:58.235Z,101015.63
2019-05-21T23:28:20.365Z,101011.97
2019-05-21T23:36:41.476Z,101009.26
2019-05-21T23:45:02.627Z,101011.03
2019-05-21T23:53:23.909Z,101011.41
